Time;durP1;ratioP1;P1;durP2;ratioP2;P2;SDS_P1;SDS_P2;PMS_P1;PMS_P2;Temp;Humidity;BMP_temperature;BMP_pressure;BME280_temperature;BME280_humidity;BME280_pressure;Samples;Min_cycle;Max_cycle;Signal;HPM_P1;HPM_P2
2023/05/04 00:00:47;;;;;;;7.20;3.78;;;11.50;85.30;;;;;;4975354;28;20052;-79
2023/05/04 00:03:13;;;;;;;5.63;3.10;;;11.40;85.20;;;;;;4976214;28;20033;-79
2023/05/04 00:05:38;;;;;;;7.18;3.33;;;11.40;85.20;;;;;;4977090;28;20065;-79
2023/05/04 00:08:04;;;;;;;5.45;3.75;;;11.40;85.60;;;;;;4977126;28;20089;-79
2023/05/04 00:10:30;;;;;;;3.67;2.67;;;11.40;85.80;;;;;;4978745;28;20478;-78
2023/05/04 00:12:56;;;;;;;7.80;3.50;;;11.40;85.90;;;;;;4972511;28;20043;-79
2023/05/04 00:15:21;;;;;;;6.32;3.03;;;11.40;86.00;;;;;;4975717;28;20018;-79
2023/05/04 00:17:47;;;;;;;8.40;3.22;;;11.30;86.00;;;;;;4976008;28;20023;-79
2023/05/04 00:20:12;;;;;;;8.88;3.30;;;11.30;86.40;;;;;;4992421;28;20427;-78
2023/05/04 00:22:38;;;;;;;5.13;3.10;;;11.30;86.70;;;;;;4981860;28;20050;-78
2023/05/04 00:25:05;;;;;;;3.85;3.42;;;11.30;86.90;;;;;;4973062;28;20057;-79
2023/05/04 00:27:31;;;;;;;4.65;3.22;;;11.20;87.10;;;;;;4972515;28;20576;-79
2023/05/04 00:29:56;;;;;;;7.22;3.42;;;11.20;87.30;;;;;;4983511;28;20038;-79
2023/05/04 00:32:22;;;;;;;9.98;3.60;;;11.10;87.50;;;;;;4972930;28;20389;-79
2023/05/04 00:34:48;;;;;;;8.48;3.40;;;11.10;87.90;;;;;;4972267;28;20042;-79
2023/05/04 00:37:13;;;;;;;8.00;3.33;;;11.10;88.10;;;;;;4975344;28;20054;-80
2023/05/04 00:39:39;;;;;;;14.35;3.67;;;11.00;88.30;;;;;;4975234;28;20251;-79
2023/05/04 00:42:05;;;;;;;8.07;4.03;;;11.00;88.60;;;;;;4982578;28;20782;-79
2023/05/04 00:44:33;;;;;;;6.20;3.75;;;10.90;88.60;;;;;;4976026;28;20022;-78
2023/05/04 00:46:59;;;;;;;11.10;4.00;;;10.90;89.50;;;;;;4981383;28;20037;-79
2023/05/04 00:49:25;;;;;;;8.95;3.70;;;10.90;89.60;;;;;;4975857;28;20022;-79
2023/05/04 00:51:53;;;;;;;7.50;3.72;;;10.80;89.60;;;;;;4978070;28;20475;-79
2023/05/04 00:54:19;;;;;;;6.57;3.70;;;10.80;90.00;;;;;;4975793;28;20054;-79
2023/05/04 00:56:46;;;;;;;7.82;4.05;;;10.70;90.20;;;;;;4973458;28;20471;-78
2023/05/04 00:59:12;;;;;;;9.85;3.60;;;10.70;90.20;;;;;;4977055;28;20027;-79
2023/05/04 01:01:39;;;;;;;8.80;3.80;;;10.70;90.50;;;;;;4976676;28;20081;-79
2023/05/04 01:04:05;;;;;;;8.55;3.60;;;10.70;90.50;;;;;;4988291;28;20034;-79
2023/05/04 01:06:34;;;;;;;12.85;3.95;;;10.60;90.60;;;;;;4981391;28;20146;-79
2023/05/04 01:09:02;;;;;;;10.02;3.78;;;10.60;90.70;;;;;;4975834;28;20027;-79
2023/05/04 01:11:58;;;;;;;7.13;4.13;;;10.60;90.90;;;;;;4971959;28;20100;-79
2023/05/04 01:14:24;;;;;;;8.63;3.92;;;10.60;91.00;;;;;;4962771;28;20042;-79
2023/05/04 01:16:54;;;;;;;11.60;3.78;;;10.50;91.00;;;;;;4975829;28;20031;-79
2023/05/04 01:19:21;;;;;;;8.68;3.97;;;10.50;91.10;;;;;;4974231;28;20023;-79
2023/05/04 01:21:46;;;;;;;9.23;3.90;;;10.40;91.40;;;;;;4989712;28;20058;-79
2023/05/04 01:24:12;;;;;;;9.40;3.75;;;10.40;91.40;;;;;;4976926;28;20018;-80
2023/05/04 01:26:40;;;;;;;5.57;3.50;;;10.40;91.50;;;;;;4972585;28;20049;-79
2023/05/04 01:29:21;;;;;;;8.32;4.50;;;10.40;91.40;;;;;;4974316;28;20492;-78
2023/05/04 01:31:48;;;;;;;9.20;3.83;;;10.50;91.70;;;;;;4974414;28;20027;-78
2023/05/04 01:34:18;;;;;;;12.30;4.25;;;10.50;91.60;;;;;;4991740;28;20508;-79
2023/05/04 01:36:44;;;;;;;6.15;3.88;;;10.50;91.70;;;;;;4973022;28;20747;-79
2023/05/04 01:39:10;;;;;;;4.88;3.67;;;10.40;91.70;;;;;;4989914;28;20023;-79
2023/05/04 01:41:36;;;;;;;13.75;4.25;;;10.40;91.70;;;;;;4974175;28;20099;-80
2023/05/04 01:44:03;;;;;;;7.40;3.45;;;10.40;91.90;;;;;;4976776;28;20057;-78
2023/05/04 01:46:29;;;;;;;9.35;4.00;;;10.40;92.00;;;;;;4990182;28;20022;-79
2023/05/04 01:48:55;;;;;;;9.88;4.10;;;10.30;92.10;;;;;;4975759;28;20053;-78
2023/05/04 01:51:20;;;;;;;5.20;3.75;;;10.40;92.20;;;;;;4974839;28;20681;-78
2023/05/04 01:53:46;;;;;;;9.80;4.00;;;10.30;92.20;;;;;;4973704;28;20430;-78
2023/05/04 01:56:11;;;;;;;6.50;3.63;;;10.30;92.40;;;;;;4990658;28;20050;-80
2023/05/04 01:58:37;;;;;;;7.43;3.65;;;10.30;92.60;;;;;;4978902;28;20030;-79
2023/05/04 02:01:03;;;;;;;8.15;3.80;;;10.30;92.60;;;;;;4978421;28;20042;-79
2023/05/04 02:03:30;;;;;;;7.70;4.15;;;10.30;92.60;;;;;;4980548;28;20019;-81
2023/05/04 02:05:55;;;;;;;9.85;4.30;;;10.20;92.70;;;;;;4978977;28;20032;-78
2023/05/04 02:08:21;;;;;;;9.25;4.40;;;10.20;92.90;;;;;;4985753;28;20035;-79
2023/05/04 02:10:47;;;;;;;5.68;3.42;;;10.20;92.90;;;;;;4974457;28;20388;-81
2023/05/04 02:13:13;;;;;;;6.40;3.88;;;10.20;93.00;;;;;;4970903;28;20038;-78
2023/05/04 02:15:39;;;;;;;7.03;3.97;;;10.20;92.70;;;;;;4974139;28;20497;-79
2023/05/04 02:18:04;;;;;;;6.93;3.80;;;10.20;93.10;;;;;;4976389;28;20022;-78
2023/05/04 02:20:30;;;;;;;11.73;3.78;;;10.20;93.20;;;;;;4971815;28;20027;-79
2023/05/04 02:22:56;;;;;;;9.98;4.25;;;10.10;93.30;;;;;;4972666;28;20019;-79
2023/05/04 02:25:22;;;;;;;8.82;4.38;;;10.10;93.40;;;;;;4970523;28;20434;-79
2023/05/04 02:27:47;;;;;;;7.53;4.65;;;10.10;93.50;;;;;;4976793;28;20528;-79
2023/05/04 02:30:13;;;;;;;9.35;4.30;;;10.10;93.50;;;;;;4968940;28;20015;-79
2023/05/04 02:32:39;;;;;;;5.13;3.80;;;10.10;93.70;;;;;;4974229;28;20547;-80
2023/05/04 02:35:05;;;;;;;9.77;4.45;;;10.00;93.80;;;;;;4967888;28;20023;-81
2023/05/04 02:37:31;;;;;;;5.68;3.83;;;10.00;93.90;;;;;;4974423;28;20034;-81
2023/05/04 02:39:59;;;;;;;8.52;4.32;;;10.00;93.90;;;;;;4972781;28;20027;-79
2023/05/04 02:42:34;;;;;;;10.18;4.22;;;10.00;93.90;;;;;;4974649;28;20050;-80
2023/05/04 02:44:59;;;;;;;7.88;4.40;;;10.00;94.10;;;;;;4975548;28;20109;-80
2023/05/04 02:47:25;;;;;;;5.35;3.67;;;10.00;93.90;;;;;;4973566;28;20027;-80
2023/05/04 02:49:51;;;;;;;8.10;4.18;;;9.90;94.00;;;;;;4973124;28;20023;-79
2023/05/04 02:52:16;;;;;;;9.48;4.38;;;10.00;94.20;;;;;;4986978;28;20030;-80
2023/05/04 02:54:42;;;;;;;11.40;4.38;;;10.00;94.10;;;;;;4969957;28;20065;-80
2023/05/04 02:57:07;;;;;;;8.90;4.72;;;9.90;94.40;;;;;;4970603;28;20379;-80
2023/05/04 02:59:36;;;;;;;8.48;4.45;;;9.90;94.50;;;;;;4971244;28;20109;-81
2023/05/04 03:02:01;;;;;;;8.88;4.22;;;9.90;94.40;;;;;;4974049;28;20111;-80
2023/05/04 03:04:27;;;;;;;8.23;4.20;;;9.80;94.70;;;;;;4971644;28;20410;-80
2023/05/04 03:06:53;;;;;;;9.90;4.43;;;9.80;94.70;;;;;;4969814;28;20042;-79
2023/05/04 03:09:18;;;;;;;11.75;4.78;;;9.90;94.70;;;;;;4973468;28;20322;-79
2023/05/04 03:11:44;;;;;;;6.70;4.70;;;9.90;94.70;;;;;;4973923;28;20428;-80
2023/05/04 03:14:09;;;;;;;8.68;4.78;;;9.90;94.80;;;;;;4978166;28;20458;-80
2023/05/04 03:16:35;;;;;;;8.27;4.57;;;9.90;94.90;;;;;;4977268;28;20034;-79
2023/05/04 03:19:01;;;;;;;11.63;5.88;;;9.80;95.00;;;;;;4976430;28;20038;-80
2023/05/04 03:21:26;;;;;;;9.85;4.88;;;9.80;95.10;;;;;;4973304;28;20034;-79
2023/05/04 03:23:52;;;;;;;8.77;4.97;;;9.80;95.20;;;;;;4982980;28;20022;-81
2023/05/04 03:26:17;;;;;;;9.68;5.30;;;9.80;95.30;;;;;;4973788;28;20054;-80
2023/05/04 03:28:43;;;;;;;11.02;5.53;;;9.80;95.30;;;;;;4980736;28;20133;-80
2023/05/04 03:31:09;;;;;;;15.65;5.28;;;9.80;95.40;;;;;;4981877;28;20490;-79
2023/05/04 03:33:34;;;;;;;7.75;4.43;;;9.70;95.40;;;;;;4977534;28;20137;-80
2023/05/04 03:36:00;;;;;;;8.30;4.95;;;9.70;95.60;;;;;;4975297;28;20076;-80
2023/05/04 03:38:25;;;;;;;11.88;5.45;;;9.70;95.70;;;;;;4976987;28;20496;-80
2023/05/04 03:40:51;;;;;;;12.98;4.95;;;9.70;95.70;;;;;;4980587;28;20035;-80
2023/05/04 03:43:17;;;;;;;6.75;4.50;;;9.70;95.80;;;;;;4976784;28;20034;-80
2023/05/04 03:45:42;;;;;;;12.23;4.95;;;9.70;95.80;;;;;;4981447;28;20042;-79
2023/05/04 03:48:08;;;;;;;9.57;4.38;;;9.60;95.90;;;;;;4974637;28;20068;-80
2023/05/04 03:50:34;;;;;;;11.02;4.78;;;9.60;96.20;;;;;;4980985;28;20031;-80
2023/05/04 03:53:00;;;;;;;6.25;4.30;;;9.60;96.20;;;;;;4994285;28;20868;-80
2023/05/04 03:55:25;;;;;;;8.77;4.75;;;9.60;96.40;;;;;;4974562;28;20023;-81
2023/05/04 03:57:51;;;;;;;14.77;4.95;;;9.50;96.40;;;;;;4982921;28;20277;-80
2023/05/04 04:00:19;;;;;;;12.00;4.65;;;9.50;96.50;;;;;;4973780;28;20011;-80
2023/05/04 04:02:45;;;;;;;9.93;4.78;;;9.50;96.50;;;;;;4974331;28;20078;-81
2023/05/04 04:05:10;;;;;;;12.85;4.57;;;9.50;96.70;;;;;;4972379;28;20026;-80
2023/05/04 04:07:36;;;;;;;12.27;4.35;;;9.50;96.80;;;;;;4973879;28;20033;-80
2023/05/04 04:10:02;;;;;;;14.20;5.55;;;9.50;96.70;;;;;;4976507;28;20015;-80
2023/05/04 04:12:27;;;;;;;12.48;5.07;;;9.50;96.90;;;;;;4975106;28;20608;-79
2023/05/04 04:14:53;;;;;;;12.77;4.95;;;9.60;97.40;;;;;;4975605;28;20034;-79
2023/05/04 04:17:19;;;;;;;13.40;4.78;;;9.50;97.00;;;;;;4976821;28;20062;-80
2023/05/04 04:19:47;;;;;;;12.57;5.63;;;9.50;97.10;;;;;;4972921;28;20277;-80
2023/05/04 04:22:12;;;;;;;12.95;6.00;;;9.50;97.20;;;;;;4975307;28;20031;-80
2023/05/04 04:24:38;;;;;;;17.80;6.32;;;9.50;97.20;;;;;;4977450;28;20091;-80
2023/05/04 04:27:03;;;;;;;12.00;6.40;;;9.60;97.30;;;;;;4976523;28;20449;-79
2023/05/04 04:29:29;;;;;;;14.68;6.20;;;9.50;97.40;;;;;;4989948;28;20042;-79
2023/05/04 04:31:55;;;;;;;14.70;6.00;;;9.50;97.60;;;;;;4974841;28;20466;-80
2023/05/04 04:34:21;;;;;;;14.30;6.50;;;9.50;97.60;;;;;;4978575;28;20136;-81
2023/05/04 04:36:46;;;;;;;10.98;5.47;;;9.50;97.70;;;;;;4974221;28;20126;-81
2023/05/04 04:39:13;;;;;;;11.55;5.75;;;9.50;97.70;;;;;;4976363;28;20470;-79
2023/05/04 04:41:38;;;;;;;13.80;5.85;;;9.60;97.70;;;;;;4977667;28;20022;-81
2023/05/04 04:44:04;;;;;;;13.82;5.43;;;9.60;97.70;;;;;;4974051;28;20562;-79
2023/05/04 04:46:30;;;;;;;7.55;4.88;;;9.50;97.80;;;;;;4975165;28;20057;-81
2023/05/04 04:48:56;;;;;;;11.02;5.30;;;9.60;97.80;;;;;;4979046;28;20088;-80
2023/05/04 04:51:21;;;;;;;10.23;4.70;;;9.60;97.80;;;;;;4974986;28;20030;-80
2023/05/04 04:53:50;;;;;;;11.68;4.93;;;9.60;97.90;;;;;;4975296;28;20089;-80
2023/05/04 04:56:17;;;;;;;14.25;4.93;;;9.60;97.90;;;;;;4979084;28;20363;-80
2023/05/04 04:58:43;;;;;;;7.88;4.68;;;9.70;98.00;;;;;;4973285;28;20029;-79
2023/05/04 05:01:16;;;;;;;10.18;5.05;;;9.80;97.90;;;;;;4980010;28;20308;-80
2023/05/04 05:03:43;;;;;;;;;;;9.80;97.70;;;;;;4969893;28;20034;-80
2023/05/04 05:06:12;;;;;;;10.05;4.18;;;9.90;97.70;;;;;;4972089;28;19929;-79
2023/05/04 05:08:38;;;;;;;10.27;5.43;;;10.00;97.70;;;;;;4976533;28;20135;-80
2023/05/04 05:11:04;;;;;;;10.15;4.80;;;10.00;97.60;;;;;;4976711;28;20142;-80
2023/05/04 05:13:30;;;;;;;14.65;4.95;;;10.10;97.50;;;;;;4976154;28;20110;-80
2023/05/04 05:15:56;;;;;;;8.88;4.63;;;10.20;97.60;;;;;;4972684;28;20034;-80
2023/05/04 05:18:22;;;;;;;11.80;4.45;;;10.20;97.30;;;;;;4975268;28;20076;-80
2023/05/04 05:20:48;;;;;;;10.40;4.72;;;10.30;97.40;;;;;;4977919;28;20086;-80
2023/05/04 05:23:13;;;;;;;12.48;4.60;;;10.40;97.40;;;;;;4973992;28;20474;-79
2023/05/04 05:25:39;;;;;;;16.30;4.45;;;10.50;97.30;;;;;;4976931;28;20031;-80
2023/05/04 05:28:06;;;;;;;14.90;4.45;;;10.50;97.20;;;;;;4980471;28;20023;-80
2023/05/04 05:30:31;;;;;;;12.30;5.53;;;10.60;97.50;;;;;;4981691;28;20088;-80
2023/05/04 05:32:57;;;;;;;10.45;4.63;;;10.60;97.00;;;;;;4979532;28;20466;-79
2023/05/04 05:35:22;;;;;;;16.27;5.82;;;10.70;96.90;;;;;;4970651;28;20080;-80
2023/05/04 05:37:48;;;;;;;8.88;4.20;;;10.80;96.90;;;;;;4978237;28;20371;-79
2023/05/04 05:40:21;;;;;;;12.35;4.45;;;10.90;96.70;;;;;;4974925;28;20647;-79
2023/05/04 05:42:48;;;;;;;12.20;4.95;;;10.90;96.70;;;;;;4976774;28;20029;-82
2023/05/04 05:45:15;;;;;;;11.13;4.47;;;11.00;97.00;;;;;;4975115;28;20101;-79
2023/05/04 05:47:41;;;;;;;10.18;4.70;;;11.10;96.80;;;;;;4977494;28;20018;-81
2023/05/04 05:50:07;;;;;;;7.18;4.20;;;11.30;96.40;;;;;;4977892;28;20031;-81
2023/05/04 05:52:33;;;;;;;9.77;4.75;;;11.40;96.40;;;;;;4974050;28;20541;-78
2023/05/04 05:54:58;;;;;;;12.85;4.43;;;11.50;96.30;;;;;;4976266;28;20042;-81
2023/05/04 05:57:24;;;;;;;9.85;4.13;;;11.50;96.20;;;;;;4976335;28;20023;-84
2023/05/04 05:59:50;;;;;;;10.35;4.38;;;11.60;95.90;;;;;;4976142;28;20077;-80
2023/05/04 06:02:15;;;;;;;11.82;4.80;;;11.70;96.00;;;;;;4977675;28;20097;-80
2023/05/04 06:04:43;;;;;;;9.55;4.20;;;11.70;95.90;;;;;;4971384;28;20112;-81
2023/05/04 06:07:09;;;;;;;10.95;4.68;;;11.70;95.90;;;;;;4982639;28;20062;-80
2023/05/04 06:09:38;;;;;;;11.63;4.82;;;11.80;95.80;;;;;;4980271;28;20127;-81
2023/05/04 06:12:05;;;;;;;10.88;4.72;;;11.90;95.90;;;;;;4978007;28;20034;-79
2023/05/04 06:14:31;;;;;;;11.70;4.35;;;12.00;95.70;;;;;;4982549;28;20042;-80
2023/05/04 06:16:57;;;;;;;9.75;4.50;;;12.10;95.70;;;;;;4974456;28;20034;-80
2023/05/04 06:19:23;;;;;;;4.82;3.92;;;12.10;95.30;;;;;;4979714;28;20018;-79
2023/05/04 06:21:51;;;;;;;15.20;4.93;;;12.20;95.20;;;;;;4975411;28;20046;-79
2023/05/04 06:24:17;;;;;;;11.25;4.55;;;12.30;95.60;;;;;;4974330;28;20037;-79
2023/05/04 06:26:43;;;;;;;11.95;3.95;;;12.40;94.90;;;;;;4974874;28;20201;-78
2023/05/04 06:29:08;;;;;;;11.45;4.85;;;12.50;94.90;;;;;;4979308;28;20712;-85
2023/05/04 06:31:34;;;;;;;16.83;5.25;;;12.60;94.70;;;;;;4982250;28;20853;-79
2023/05/04 06:34:00;;;;;;;8.02;4.70;;;12.70;94.60;;;;;;4975618;28;20100;-79
2023/05/04 06:36:27;;;;;;;10.60;4.20;;;12.90;94.30;;;;;;4980194;28;20213;-79
2023/05/04 06:38:56;;;;;;;7.78;4.25;;;13.00;94.20;;;;;;4972639;28;20022;-83
2023/05/04 06:41:23;;;;;;;8.35;4.35;;;13.10;93.80;;;;;;4991763;28;20026;-79
2023/05/04 06:43:51;;;;;;;9.45;4.50;;;13.20;94.00;;;;;;4979571;28;20057;-86
2023/05/04 06:46:17;;;;;;;8.35;4.25;;;13.30;93.50;;;;;;4982676;28;20829;-83
2023/05/04 06:48:45;;;;;;;11.48;4.60;;;13.50;93.70;;;;;;4981915;28;20041;-85
2023/05/04 06:51:11;;;;;;;10.40;5.00;;;13.60;93.30;;;;;;4977854;28;20556;-86
2023/05/04 06:53:36;;;;;;;10.05;4.30;;;13.70;93.00;;;;;;4975997;28;20039;-85
2023/05/04 06:56:02;;;;;;;13.10;4.22;;;13.90;93.00;;;;;;4973011;28;20113;-87
2023/05/04 06:58:28;;;;;;;15.02;4.55;;;14.10;92.70;;;;;;4981103;28;20029;-86
2023/05/04 07:00:54;;;;;;;9.90;4.30;;;14.20;92.40;;;;;;4979285;28;20030;-84
2023/05/04 07:03:19;;;;;;;6.60;4.10;;;14.40;92.40;;;;;;4989600;28;20027;-80
2023/05/04 07:05:47;;;;;;;12.02;4.47;;;14.60;92.20;;;;;;4972395;28;20030;-81
2023/05/04 07:08:13;;;;;;;7.15;4.25;;;14.60;91.60;;;;;;4975544;28;20161;-83
2023/05/04 07:10:38;;;;;;;8.50;4.20;;;14.70;91.70;;;;;;4980343;28;20542;-85
2023/05/04 07:13:06;;;;;;;12.02;4.45;;;14.80;91.30;;;;;;4987902;28;20102;-82
2023/05/04 07:15:32;;;;;;;11.75;4.32;;;14.90;91.40;;;;;;4995697;28;20284;-83
2023/05/04 07:18:00;;;;;;;9.38;3.97;;;14.90;91.30;;;;;;5001229;28;20027;-83
2023/05/04 07:20:26;;;;;;;7.68;4.88;;;15.10;91.50;;;;;;4998567;28;20339;-80
2023/05/04 07:22:55;;;;;;;14.80;6.35;;;15.30;91.50;;;;;;4990275;28;20045;-87
2023/05/04 07:25:25;;;;;;;8.93;4.13;;;15.50;90.50;;;;;;4985939;28;20038;-88
2023/05/04 07:27:52;;;;;;;9.63;3.92;;;15.60;90.40;;;;;;4985101;28;20046;-86
2023/05/04 07:30:18;;;;;;;6.70;3.70;;;15.70;90.30;;;;;;4980859;28;20025;-85
2023/05/04 07:32:44;;;;;;;7.07;4.03;;;15.80;90.60;;;;;;4987024;28;20061;-85
2023/05/04 07:35:10;;;;;;;14.02;4.60;;;15.90;90.30;;;;;;4979688;28;20057;-85
2023/05/04 07:37:35;;;;;;;8.57;3.90;;;16.10;90.00;;;;;;4982452;28;20019;-86
2023/05/04 07:40:06;;;;;;;8.50;4.68;;;16.10;89.60;;;;;;4979729;28;20735;-84
2023/05/04 07:42:33;;;;;;;10.48;4.13;;;16.20;89.40;;;;;;4980179;28;20090;-82
2023/05/04 07:44:59;;;;;;;10.82;4.72;;;16.40;88.90;;;;;;4973455;28;20018;-81
2023/05/04 07:47:25;;;;;;;6.93;3.85;;;16.50;89.40;;;;;;4974295;28;20064;-81
2023/05/04 07:49:51;;;;;;;8.00;4.40;;;16.70;87.90;;;;;;4979125;28;20034;-81
2023/05/04 07:52:17;;;;;;;8.27;4.07;;;16.80;88.10;;;;;;4977680;28;20065;-81
2023/05/04 07:54:42;;;;;;;8.85;4.72;;;16.90;88.00;;;;;;4973091;28;20035;-81
2023/05/04 07:57:08;;;;;;;10.88;4.65;;;17.20;87.60;;;;;;4976301;28;20023;-82
2023/05/04 07:59:34;;;;;;;7.30;3.85;;;17.30;86.40;;;;;;4972124;28;20030;-82
2023/05/04 08:02:00;;;;;;;7.70;4.05;;;17.50;86.60;;;;;;4983749;28;20469;-80
2023/05/04 08:04:25;;;;;;;8.25;4.47;;;17.80;85.80;;;;;;4982384;28;20113;-82
2023/05/04 08:06:51;;;;;;;10.00;4.20;;;17.90;85.10;;;;;;4995154;28;20118;-87
2023/05/04 08:09:18;;;;;;;12.90;3.90;;;18.10;84.50;;;;;;4979413;28;20030;-80
2023/05/04 08:11:45;;;;;;;10.98;4.32;;;18.30;83.60;;;;;;4992674;28;20061;-80
2023/05/04 08:14:10;;;;;;;8.07;4.43;;;18.60;82.90;;;;;;4978725;28;20070;-80
2023/05/04 08:16:38;;;;;;;7.20;4.15;;;18.70;82.10;;;;;;4984860;28;20072;-78
2023/05/04 08:19:06;;;;;;;51.83;21.83;;;18.70;80.80;;;;;;4981293;28;20030;-79
2023/05/04 08:21:32;;;;;;;192.10;70.10;;;18.90;81.30;;;;;;4977081;28;20560;-82
2023/05/04 08:23:57;;;;;;;12.68;4.85;;;19.10;81.00;;;;;;4976978;28;20030;-80
2023/05/04 08:26:23;;;;;;;7.50;3.97;;;19.40;81.10;;;;;;4976418;28;20042;-79
2023/05/04 08:28:49;;;;;;;7.30;4.03;;;19.70;78.20;;;;;;4980023;28;20397;-82
2023/05/04 08:31:17;;;;;;;10.10;4.40;;;19.90;78.30;;;;;;4984025;28;20049;-83
2023/05/04 08:33:45;;;;;;;6.10;4.50;;;20.10;76.70;;;;;;4985515;28;20061;-84
2023/05/04 08:36:11;;;;;;;7.40;4.30;;;20.40;76.20;;;;;;4980838;28;20050;-84
2023/05/04 08:38:37;;;;;;;6.47;4.70;;;20.60;75.30;;;;;;4982759;28;20121;-82
2023/05/04 08:41:03;;;;;;;9.88;4.30;;;20.80;73.70;;;;;;4980810;28;20025;-84
2023/05/04 08:43:32;;;;;;;12.93;4.85;;;20.90;71.00;;;;;;4979684;28;20308;-80
2023/05/04 08:45:58;;;;;;;7.30;4.15;;;20.70;70.70;;;;;;4978391;28;20117;-80
2023/05/04 08:48:23;;;;;;;21.95;10.77;;;21.00;71.50;;;;;;4979096;28;20133;-80
2023/05/04 08:50:50;;;;;;;101.78;41.42;;;21.20;69.20;;;;;;4976264;28;20113;-80
2023/05/04 08:53:18;;;;;;;8.10;4.57;;;21.30;67.20;;;;;;4981336;28;20797;-81
2023/05/04 08:55:46;;;;;;;9.18;4.55;;;21.60;68.20;;;;;;4981562;28;20023;-83
2023/05/04 08:58:14;;;;;;;14.32;4.70;;;21.80;69.20;;;;;;4977296;28;20380;-83
2023/05/04 09:00:42;;;;;;;10.07;4.60;;;22.10;69.10;;;;;;4983856;28;20030;-83
2023/05/04 09:03:12;;;;;;;10.77;4.80;;;22.30;68.80;;;;;;4981449;28;20063;-84
2023/05/04 09:05:40;;;;;;;8.55;4.97;;;22.30;67.00;;;;;;4987256;28;20112;-83
2023/05/04 09:08:06;;;;;;;9.43;4.60;;;22.40;67.10;;;;;;4991471;28;20046;-82
2023/05/04 09:10:33;;;;;;;104.10;33.50;;;22.50;66.20;;;;;;4974838;28;20474;-80
2023/05/04 09:12:58;;;;;;;7.38;4.60;;;22.70;66.00;;;;;;4984331;28;20026;-82
2023/05/04 09:15:25;;;;;;;9.32;4.50;;;22.50;65.30;;;;;;4979226;28;20042;-82
2023/05/04 09:18:00;;;;;;;11.18;5.05;;;22.70;66.80;;;;;;4980256;28;20062;-83
2023/05/04 09:20:26;;;;;;;10.88;4.50;;;23.00;66.90;;;;;;4976805;28;20025;-82
2023/05/04 09:23:08;;;;;;;7.18;4.28;;;23.30;66.80;;;;;;4991167;28;20041;-82
2023/05/04 09:25:47;;;;;;;5.38;4.72;;;23.70;64.00;;;;;;4977115;28;20122;-82
2023/05/04 09:28:14;;;;;;;12.60;4.85;;;23.90;63.20;;;;;;4991279;28;20421;-82
2023/05/04 09:30:40;;;;;;;9.98;5.03;;;24.00;63.50;;;;;;4981668;28;20363;-83
2023/05/04 09:33:05;;;;;;;10.32;4.45;;;23.90;60.90;;;;;;4977965;28;20027;-81
2023/05/04 09:35:31;;;;;;;8.20;4.47;;;23.80;61.00;;;;;;4979125;28;20037;-82
2023/05/04 09:37:57;;;;;;;6.97;4.65;;;23.80;61.60;;;;;;4974920;28;20027;-82
2023/05/04 09:40:34;;;;;;;16.98;8.65;;;24.10;61.20;;;;;;4980703;28;20030;-78
2023/05/04 09:43:02;;;;;;;8.63;4.18;;;24.10;61.40;;;;;;4976203;28;20475;-79
2023/05/04 09:45:43;;;;;;;7.57;4.78;;;24.30;62.60;;;;;;4978514;28;20131;-79
2023/05/04 09:48:18;;;;;;;9.95;4.80;;;24.50;61.30;;;;;;4974402;28;20075;-78
2023/05/04 09:50:54;;;;;;;11.00;4.70;;;24.50;59.70;;;;;;4973331;28;20109;-78
2023/05/04 09:53:23;;;;;;;8.30;4.82;;;24.60;59.60;;;;;;4975202;28;20110;-78
2023/05/04 09:56:13;;;;;;;7.43;4.82;;;24.70;59.20;;;;;;4975770;28;20038;-79
2023/05/04 09:58:41;;;;;;;6.47;4.88;;;24.90;59.10;;;;;;4976279;28;20034;-79
2023/05/04 10:01:08;;;;;;;14.77;5.72;;;25.10;59.00;;;;;;4978109;28;20033;-78
2023/05/04 10:03:34;;;;;;;12.45;5.07;;;25.60;58.50;;;;;;4981326;28;20173;-77
2023/05/04 10:06:03;;;;;;;11.32;5.45;;;25.80;57.20;;;;;;4977565;28;20505;-80
2023/05/04 10:08:29;;;;;;;10.27;5.85;;;25.80;55.10;;;;;;4975084;28;20077;-78
2023/05/04 10:10:55;;;;;;;9.70;5.15;;;25.50;55.30;;;;;;4975611;28;20050;-77
2023/05/04 10:13:22;;;;;;;14.82;6.90;;;25.40;55.00;;;;;;4971044;28;20038;-79
2023/05/04 10:16:19;;;;;;;15.65;6.40;;;25.40;55.80;;;;;;4973294;28;20030;-78
2023/05/04 10:18:59;;;;;;;16.27;5.82;;;25.30;57.00;;;;;;4976098;28;20678;-78
2023/05/04 10:21:31;;;;;;;10.80;5.53;;;25.30;57.10;;;;;;4976075;28;20038;-78
2023/05/04 10:24:39;;;;;;;9.50;4.97;;;25.40;57.30;;;;;;4972421;28;20133;-78
2023/05/04 10:27:16;;;;;;;13.98;5.35;;;25.80;55.80;;;;;;4959063;28;20050;-78
2023/05/04 10:29:46;;;;;;;9.38;6.03;;;26.10;56.10;;;;;;4971155;28;20026;-78
2023/05/04 10:32:22;;;;;;;8.95;5.18;;;26.10;55.00;;;;;;4977653;28;20432;-78
2023/05/04 10:34:48;;;;;;;7.55;5.95;;;26.20;55.30;;;;;;4970930;28;20438;-78
2023/05/04 10:37:21;;;;;;;11.63;5.93;;;26.10;54.70;;;;;;4970659;28;20026;-78
2023/05/04 10:39:54;;;;;;;17.42;8.32;;;26.50;53.90;;;;;;4973533;28;21489;-78
2023/05/04 10:42:20;;;;;;;11.20;5.97;;;26.50;52.30;;;;;;4981119;28;20726;-78
2023/05/04 10:44:53;;;;;;;9.88;6.18;;;26.80;54.10;;;;;;4966836;28;20446;-78
2023/05/04 10:47:34;;;;;;;10.90;6.32;;;27.30;53.30;;;;;;4976181;28;20113;-79
2023/05/04 10:50:10;;;;;;;15.65;6.43;;;27.70;52.30;;;;;;4976546;28;20030;-78
2023/05/04 10:52:50;;;;;;;15.27;6.75;;;27.40;51.20;;;;;;4990659;28;20061;-78
2023/05/04 10:55:17;;;;;;;12.90;6.13;;;27.30;52.30;;;;;;4985191;28;20046;-79
2023/05/04 10:57:53;;;;;;;16.02;6.55;;;27.00;50.60;;;;;;4978229;28;20023;-78
2023/05/04 11:00:20;;;;;;;11.50;6.43;;;27.00;50.80;;;;;;4973924;28;20360;-78
2023/05/04 11:02:46;;;;;;;11.57;7.53;;;27.20;51.40;;;;;;4972241;28;20155;-80
2023/05/04 11:05:18;;;;;;;9.40;6.70;;;27.00;51.40;;;;;;4973987;28;20034;-78
2023/05/04 11:07:45;;;;;;;11.32;7.30;;;26.80;52.10;;;;;;4979176;28;20399;-78
2023/05/04 11:10:21;;;;;;;11.02;7.22;;;26.60;52.20;;;;;;4991311;28;20030;-78
2023/05/04 11:12:47;;;;;;;9.02;6.82;;;26.60;52.20;;;;;;4975183;28;20491;-78
2023/05/04 11:15:13;;;;;;;9.57;6.72;;;26.70;52.40;;;;;;4981750;28;20691;-78
2023/05/04 11:17:49;;;;;;;13.00;7.63;;;26.80;52.30;;;;;;4970372;28;20042;-77
2023/05/04 11:20:25;;;;;;;10.55;7.00;;;26.50;51.90;;;;;;4977440;28;20054;-80
2023/05/04 11:22:54;;;;;;;9.75;6.75;;;26.40;52.50;;;;;;4975191;28;20026;-78
2023/05/04 11:25:32;;;;;;;11.60;7.93;;;26.30;53.80;;;;;;4988768;28;20034;-77
2023/05/04 11:27:58;;;;;;;14.77;7.50;;;26.50;52.20;;;;;;4979749;28;20066;-78
2023/05/04 11:30:34;;;;;;;11.43;7.68;;;26.70;52.60;;;;;;4977054;28;20035;-77
2023/05/04 11:33:01;;;;;;;10.95;6.82;;;26.90;52.30;;;;;;4975582;28;20032;-77
2023/05/04 11:35:26;;;;;;;13.23;6.80;;;27.10;52.50;;;;;;4977612;28;20058;-78
2023/05/04 11:37:54;;;;;;;15.18;7.65;;;27.60;52.20;;;;;;4976667;28;20552;-78
2023/05/04 11:40:23;;;;;;;9.82;6.80;;;27.80;51.40;;;;;;4985733;28;20370;-77
2023/05/04 11:42:51;;;;;;;10.32;6.88;;;27.90;51.20;;;;;;4978571;28;20035;-78
2023/05/04 11:45:26;;;;;;;12.50;7.50;;;27.70;50.70;;;;;;4979906;28;20030;-79
2023/05/04 11:47:52;;;;;;;16.58;7.55;;;27.90;52.30;;;;;;4992593;28;20034;-78
2023/05/04 11:50:19;;;;;;;15.23;7.85;;;27.80;50.80;;;;;;4976484;28;20026;-78
2023/05/04 11:52:46;;;;;;;13.45;8.02;;;27.80;51.20;;;;;;4980852;28;20035;-79
2023/05/04 11:55:26;;;;;;;11.80;7.78;;;27.70;51.10;;;;;;4977020;28;20475;-78
2023/05/04 11:58:02;;;;;;;18.42;8.40;;;27.70;51.10;;;;;;4977751;28;20042;-79
2023/05/04 12:00:38;;;;;;;9.95;7.05;;;27.70;51.90;;;;;;4982549;28;20022;-78
2023/05/04 12:03:08;;;;;;;14.00;8.25;;;27.90;50.50;;;;;;4978636;28;20477;-78
2023/05/04 12:05:45;;;;;;;14.00;7.53;;;28.00;51.70;;;;;;4980021;28;20057;-78
2023/05/04 12:08:41;;;;;;;9.55;7.38;;;28.10;51.20;;;;;;4976622;28;20026;-77
2023/05/04 12:11:24;;;;;;;11.68;7.45;;;28.20;49.90;;;;;;4974628;28;20039;-78
2023/05/04 12:14:08;;;;;;;13.57;7.57;;;28.40;50.70;;;;;;4977493;28;20041;-80
2023/05/04 12:16:34;;;;;;;14.02;9.00;;;28.50;50.50;;;;;;4977492;28;20035;-78
2023/05/04 12:19:14;;;;;;;11.35;7.53;;;28.50;49.60;;;;;;4979482;28;20030;-78
2023/05/04 12:21:58;;;;;;;14.60;8.10;;;28.60;50.90;;;;;;4976735;28;20025;-78
2023/05/04 12:24:28;;;;;;;12.80;7.82;;;28.60;49.60;;;;;;4983217;28;20166;-78
2023/05/04 12:26:56;;;;;;;13.02;8.52;;;28.60;50.20;;;;;;4970527;28;20072;-77
2023/05/04 12:29:21;;;;;;;13.07;7.97;;;28.50;49.00;;;;;;4976700;28;20023;-78
2023/05/04 12:31:47;;;;;;;14.98;8.50;;;28.40;49.20;;;;;;4983562;28;20034;-79
2023/05/04 12:34:12;;;;;;;10.57;7.68;;;28.70;49.00;;;;;;4976688;28;20035;-78
2023/05/04 12:36:38;;;;;;;10.27;7.15;;;28.60;48.00;;;;;;4975536;28;20948;-78
2023/05/04 12:39:04;;;;;;;11.55;7.80;;;28.60;48.20;;;;;;4978521;28;20347;-78
2023/05/04 12:41:30;;;;;;;11.70;6.88;;;28.70;48.80;;;;;;4977140;28;20022;-78
2023/05/04 12:43:59;;;;;;;17.25;7.05;;;29.00;49.00;;;;;;4977142;28;20080;-79
2023/05/04 12:46:27;;;;;;;10.77;7.05;;;29.00;48.10;;;;;;4975523;28;20113;-78